createdAt,value
2022-09-26T00:00:42.092Z,12.93
2022-09-26T00:03:10.188Z,10.32
2022-09-26T00:05:38.030Z,10.13
2022-09-26T00:08:05.849Z,12.75
2022-09-26T00:10:52.391Z,18.08
2022-09-26T00:13:38.120Z,11.23
2022-09-26T00:16:05.342Z,11.88
2022-09-26T00:18:33.445Z,9.70
2022-09-26T00:21:13.907Z,10.60
2022-09-26T00:23:44.407Z,13.43
2022-09-26T00:26:12.292Z,12.27
2022-09-26T00:28:38.788Z,10.50
2022-09-26T00:31:19.506Z,12.32
2022-09-26T00:33:47.228Z,8.90
2022-09-26T00:36:13.971Z,17.17
2022-09-26T00:38:40.719Z,10.98
2022-09-26T00:41:07.825Z,12.57
2022-09-26T00:43:38.516Z,10.73
2022-09-26T00:46:20.934Z,12.23
2022-09-26T00:48:49.980Z,10.30
2022-09-26T00:51:16.570Z,10.57
2022-09-26T00:53:47.498Z,12.65
2022-09-26T00:56:19.167Z,13.15
2022-09-26T00:59:02.799Z,11.18
2022-09-26T01:01:29.699Z,14.70
2022-09-26T01:03:57.408Z,11.82
2022-09-26T01:06:24.075Z,14.32
2022-09-26T01:08:56.728Z,14.60
2022-09-26T01:11:23.294Z,14.57
2022-09-26T01:13:51.859Z,11.48
2022-09-26T01:16:18.545Z,14.10
2022-09-26T01:18:45.291Z,11.65
2022-09-26T01:21:37.583Z,13.32
2022-09-26T01:24:26.610Z,16.42
2022-09-26T01:27:36.039Z,16.95
2022-09-26T01:30:21.450Z,16.70
2022-09-26T01:33:17.269Z,13.40
2022-09-26T01:36:09.936Z,11.27
2022-09-26T01:39:01.056Z,14.48
2022-09-26T01:42:19.260Z,17.13
2022-09-26T01:45:08.296Z,12.35
2022-09-26T01:47:38.127Z,12.02
2022-09-26T01:50:13.684Z,14.73
2022-09-26T01:52:46.499Z,22.42
2022-09-26T01:55:28.057Z,15.90
2022-09-26T01:58:04.832Z,14.77
2022-09-26T02:00:33.197Z,14.75
2022-09-26T02:03:01.289Z,13.70
2022-09-26T02:05:33.267Z,14.90
2022-09-26T02:08:42.332Z,17.15
2022-09-26T02:11:13.034Z,19.17
2022-09-26T02:14:09.361Z,15.45
2022-09-26T02:16:42.448Z,16.33
2022-09-26T02:19:11.519Z,17.30
2022-09-26T02:21:38.295Z,11.27
2022-09-26T02:24:05.008Z,14.63
2022-09-26T02:26:33.649Z,16.00
2022-09-26T02:29:01.193Z,17.90
2022-09-26T02:31:30.546Z,20.25
2022-09-26T02:38:20.216Z,17.67
2022-09-26T02:41:20.174Z,15.82
2022-09-26T02:44:06.005Z,19.15
2022-09-26T02:46:44.931Z,16.45
2022-09-26T02:49:31.157Z,19.33
2022-09-26T02:52:07.678Z,18.13
2022-09-26T02:54:46.460Z,16.77
2022-09-26T02:57:15.991Z,19.60
2022-09-26T02:59:51.157Z,15.30
2022-09-26T03:02:25.824Z,18.00
2022-09-26T03:05:10.701Z,17.77
2022-09-26T03:07:44.780Z,17.13
2022-09-26T03:10:12.454Z,19.15
2022-09-26T03:12:44.345Z,16.42
2022-09-26T03:15:12.595Z,17.55
2022-09-26T03:17:43.053Z,15.43
2022-09-26T03:20:14.905Z,22.30
2022-09-26T03:22:43.692Z,23.23
2022-09-26T03:25:14.850Z,24.73
2022-09-26T03:27:49.121Z,18.05
2022-09-26T03:30:17.180Z,16.98
2022-09-26T03:32:54.075Z,19.42
2022-09-26T03:35:21.668Z,16.88
2022-09-26T03:37:48.683Z,17.65
2022-09-26T03:40:15.624Z,18.83
2022-09-26T03:42:57.278Z,20.88
2022-09-26T03:45:24.219Z,23.13
2022-09-26T03:48:08.216Z,19.73
2022-09-26T03:50:34.952Z,14.85
2022-09-26T03:53:02.057Z,15.15
2022-09-26T03:55:28.699Z,14.27
2022-09-26T03:57:55.318Z,20.73
2022-09-26T04:00:29.280Z,18.10
2022-09-26T04:02:55.940Z,23.90
2022-09-26T04:05:33.809Z,22.92
2022-09-26T04:08:04.325Z,18.95
2022-09-26T04:10:31.218Z,21.02
2022-09-26T04:12:58.181Z,20.33
2022-09-26T04:15:25.303Z,18.95
2022-09-26T04:18:03.317Z,18.63
2022-09-26T04:20:29.834Z,14.75
2022-09-26T04:22:56.398Z,16.25
2022-09-26T04:25:23.042Z,19.88
2022-09-26T04:27:50.031Z,17.08
2022-09-26T04:30:17.036Z,18.05
2022-09-26T04:32:53.294Z,19.58
2022-09-26T04:35:28.887Z,15.02
2022-09-26T04:37:55.697Z,15.32
2022-09-26T04:40:22.572Z,19.15
2022-09-26T04:43:00.611Z,14.88
2022-09-26T04:45:27.300Z,16.98
2022-09-26T04:47:54.045Z,14.07
2022-09-26T04:50:26.679Z,18.15
2022-09-26T04:53:07.426Z,14.05
2022-09-26T04:55:39.405Z,16.98
2022-09-26T04:58:06.039Z,14.55
2022-09-26T05:00:33.032Z,20.58
2022-09-26T05:03:05.026Z,19.05
2022-09-26T05:05:33.114Z,16.08
2022-09-26T05:07:59.743Z,15.18
2022-09-26T05:10:26.872Z,15.88
2022-09-26T05:12:59.756Z,18.35
2022-09-26T05:15:26.351Z,18.27
2022-09-26T05:17:59.999Z,14.35
2022-09-26T05:20:31.354Z,14.63
2022-09-26T05:23:02.937Z,12.23
2022-09-26T05:25:53.823Z,14.15
2022-09-26T05:28:22.087Z,14.52
2022-09-26T05:30:50.237Z,12.27
2022-09-26T05:33:21.658Z,15.63
2022-09-26T05:35:53.242Z,12.82
2022-09-26T05:38:20.526Z,16.95
2022-09-26T05:40:56.782Z,14.65
2022-09-26T05:43:34.876Z,14.88
2022-09-26T05:46:07.204Z,13.10
2022-09-26T05:48:39.392Z,17.15
2022-09-26T05:51:11.761Z,10.90
2022-09-26T05:53:42.126Z,15.45
2022-09-26T05:56:09.642Z,11.98
2022-09-26T05:58:51.845Z,14.65
2022-09-26T06:01:18.885Z,11.90
2022-09-26T06:03:48.747Z,9.88
2022-09-26T06:06:24.875Z,11.90
2022-09-26T06:08:56.138Z,12.30
2022-09-26T06:11:41.322Z,12.10
2022-09-26T06:14:08.145Z,9.93
2022-09-26T06:16:34.764Z,10.77
2022-09-26T06:19:02.496Z,9.85
2022-09-26T06:21:29.760Z,9.10
2022-09-26T06:24:03.371Z,7.38
2022-09-26T06:26:31.434Z,7.82
2022-09-26T06:28:59.976Z,11.27
2022-09-26T06:31:29.029Z,12.33
2022-09-26T06:34:12.717Z,9.80
2022-09-26T06:36:50.845Z,11.45
2022-09-26T06:39:17.765Z,8.88
2022-09-26T06:41:46.153Z,12.65
2022-09-26T06:44:29.686Z,10.88
2022-09-26T06:47:15.049Z,13.65
2022-09-26T06:49:42.092Z,8.27
2022-09-26T06:52:21.163Z,9.40
2022-09-26T06:54:48.385Z,15.13
2022-09-26T06:57:15.418Z,7.93
2022-09-26T06:59:42.191Z,16.50
2022-09-26T07:02:17.786Z,14.57
2022-09-26T07:05:02.680Z,9.38
2022-09-26T07:07:42.226Z,15.95
2022-09-26T07:10:20.822Z,17.13
2022-09-26T07:13:03.960Z,10.32
2022-09-26T07:15:33.367Z,10.40
2022-09-26T07:18:04.237Z,11.40
2022-09-26T07:20:40.765Z,7.00
2022-09-26T07:23:28.967Z,11.13
2022-09-26T07:25:55.577Z,8.80
2022-09-26T07:28:22.243Z,16.27
2022-09-26T07:30:50.093Z,10.27
2022-09-26T07:33:27.040Z,10.73
2022-09-26T07:36:00.726Z,7.97
2022-09-26T07:38:29.707Z,8.98
2022-09-26T07:40:56.346Z,11.13
2022-09-26T07:43:35.889Z,8.55
2022-09-26T07:46:28.558Z,14.25
2022-09-26T07:49:14.988Z,8.30
2022-09-26T07:51:57.113Z,11.73
2022-09-26T07:54:30.898Z,8.48
2022-09-26T07:57:20.596Z,10.57
2022-09-26T08:00:12.633Z,6.38
2022-09-26T08:02:49.106Z,10.30
2022-09-26T08:05:19.745Z,9.27
2022-09-26T08:07:47.969Z,7.88
2022-09-26T08:10:43.718Z,11.27
2022-09-26T08:13:13.820Z,9.43
2022-09-26T08:16:07.331Z,9.38
2022-09-26T08:18:40.043Z,6.47
2022-09-26T08:21:07.027Z,11.27
2022-09-26T08:23:34.123Z,4.72
2022-09-26T08:26:23.874Z,9.00
2022-09-26T08:28:59.812Z,9.25
2022-09-26T08:31:26.715Z,11.35
2022-09-26T08:33:53.921Z,7.97
2022-09-26T08:36:21.458Z,8.90
2022-09-26T08:39:13.350Z,9.15
2022-09-26T08:42:41.734Z,10.18
2022-09-26T08:46:05.030Z,17.13
2022-09-26T08:48:59.576Z,6.88
2022-09-26T08:51:54.662Z,12.30
2022-09-26T08:54:33.720Z,5.70
2022-09-26T08:57:08.485Z,9.48
2022-09-26T08:59:43.484Z,12.57
2022-09-26T09:02:34.130Z,12.30
2022-09-26T09:05:10.647Z,12.10
2022-09-26T09:07:41.789Z,8.05
2022-09-26T09:10:18.191Z,8.07
2022-09-26T09:13:14.023Z,5.75
2022-09-26T09:16:21.416Z,5.32
2022-09-26T09:19:26.224Z,8.20
2022-09-26T09:22:32.266Z,12.30
2022-09-26T09:25:10.067Z,12.25
2022-09-26T09:27:53.154Z,11.02
2022-09-26T09:30:33.342Z,11.25
2022-09-26T09:33:46.206Z,14.52
2022-09-26T09:36:48.742Z,9.60
2022-09-26T09:39:35.972Z,6.82
2022-09-26T09:42:26.554Z,11.57
2022-09-26T09:45:09.810Z,5.43
2022-09-26T09:47:38.531Z,8.85
2022-09-26T09:50:12.735Z,11.70
2022-09-26T09:52:42.041Z,7.95
2022-09-26T09:55:44.778Z,10.45
2022-09-26T09:58:21.336Z,15.40
2022-09-26T10:01:01.930Z,9.48
2022-09-26T10:03:55.937Z,9.48
2022-09-26T10:06:46.579Z,13.40
2022-09-26T10:09:36.496Z,9.48
2022-09-26T10:12:39.525Z,10.40
2022-09-26T10:15:48.137Z,8.88
2022-09-26T10:19:00.927Z,9.40
2022-09-26T10:21:35.541Z,10.18
2022-09-26T10:24:04.649Z,10.02
2022-09-26T10:26:49.313Z,7.53
2022-09-26T10:29:38.266Z,9.48
2022-09-26T10:32:05.428Z,10.25
2022-09-26T10:34:34.503Z,9.07
2022-09-26T10:37:24.760Z,8.00
2022-09-26T10:40:18.996Z,7.55
2022-09-26T10:42:48.223Z,9.25
2022-09-26T10:45:29.244Z,10.68
2022-09-26T10:48:36.753Z,8.70
2022-09-26T10:51:45.334Z,9.35
2022-09-26T10:54:17.026Z,7.82
2022-09-26T10:56:54.131Z,7.15
2022-09-26T10:59:31.378Z,5.93
2022-09-26T11:02:03.571Z,4.72
2022-09-26T11:04:53.090Z,10.32
2022-09-26T11:07:52.285Z,4.78
2022-09-26T11:10:42.121Z,5.28
2022-09-26T11:13:28.956Z,7.15
2022-09-26T11:16:08.780Z,7.93
2022-09-26T11:18:48.417Z,3.95
2022-09-26T11:21:28.934Z,5.10
2022-09-26T11:24:12.170Z,5.57
2022-09-26T11:26:49.008Z,9.27
2022-09-26T11:29:37.696Z,4.80
2022-09-26T11:32:42.783Z,4.70
2022-09-26T11:35:58.296Z,6.38
2022-09-26T11:38:41.969Z,6.17
2022-09-26T11:41:44.637Z,6.65
2022-09-26T11:44:33.615Z,3.75
2022-09-26T11:47:29.867Z,5.32
2022-09-26T11:50:05.402Z,7.78
2022-09-26T11:52:54.914Z,7.13
2022-09-26T11:55:31.002Z,13.52
2022-09-26T11:58:09.732Z,6.35
2022-09-26T12:01:16.464Z,4.18
2022-09-26T12:04:08.395Z,4.93
2022-09-26T12:06:43.612Z,3.72
2022-09-26T12:09:31.933Z,6.43
2022-09-26T12:12:00.606Z,7.28
2022-09-26T12:14:36.010Z,7.63
2022-09-26T12:17:18.690Z,8.00
2022-09-26T12:19:58.759Z,6.68
2022-09-26T12:22:31.633Z,6.07
2022-09-26T12:25:22.746Z,7.68
2022-09-26T12:28:00.940Z,7.07
2022-09-26T12:30:45.848Z,6.80
2022-09-26T12:33:34.442Z,10.60
2022-09-26T12:36:18.882Z,9.23
2022-09-26T12:39:12.277Z,6.50
2022-09-26T12:42:04.236Z,6.82
2022-09-26T12:44:49.934Z,14.15
2022-09-26T12:47:26.896Z,8.75
2022-09-26T12:50:05.492Z,15.95
2022-09-26T12:52:57.490Z,11.43
2022-09-26T12:55:34.072Z,13.20
2022-09-26T12:58:11.245Z,9.30
2022-09-26T13:00:45.742Z,14.07
2022-09-26T13:03:37.058Z,12.18
2022-09-26T13:06:17.204Z,8.23
2022-09-26T13:08:46.820Z,11.75
2022-09-26T13:11:27.335Z,13.52
2022-09-26T13:14:27.761Z,12.82
2022-09-26T13:17:09.422Z,9.30
2022-09-26T13:19:37.634Z,8.10
2022-09-26T13:22:14.500Z,7.45
2022-09-26T13:25:02.075Z,9.73
2022-09-26T13:27:36.180Z,9.02
2022-09-26T13:30:16.439Z,11.90
2022-09-26T13:33:11.078Z,7.57
2022-09-26T13:35:47.317Z,6.65
2022-09-26T13:38:51.594Z,7.85
2022-09-26T13:41:42.752Z,11.27
2022-09-26T13:44:19.398Z,12.07
2022-09-26T13:47:15.000Z,10.68
2022-09-26T13:49:54.129Z,8.48
2022-09-26T13:52:34.108Z,11.00
2022-09-26T13:55:04.418Z,7.85
2022-09-26T13:57:46.705Z,10.75
2022-09-26T14:00:26.230Z,9.95
2022-09-26T14:03:16.116Z,10.10
2022-09-26T14:05:43.597Z,13.38
2022-09-26T14:08:44.200Z,18.63
2022-09-26T14:11:28.857Z,11.90
2022-09-26T14:14:17.993Z,15.52
2022-09-26T14:16:45.855Z,12.45
2022-09-26T14:19:36.223Z,11.90
2022-09-26T14:22:02.770Z,11.15
2022-09-26T14:24:37.520Z,16.55
2022-09-26T14:27:11.715Z,12.27
2022-09-26T14:29:38.097Z,15.38
2022-09-26T14:32:08.554Z,8.15
2022-09-26T14:34:45.783Z,12.00
2022-09-26T14:37:25.656Z,9.63
2022-09-26T14:40:10.364Z,14.32
2022-09-26T14:42:50.267Z,9.95
2022-09-26T14:45:16.828Z,16.73
2022-09-26T14:47:50.153Z,12.15
2022-09-26T14:50:25.027Z,17.77
2022-09-26T14:52:56.663Z,15.52
2022-09-26T14:55:23.641Z,10.77
2022-09-26T14:57:50.509Z,19.63
2022-09-26T15:00:36.093Z,16.98
2022-09-26T15:03:07.290Z,19.08
2022-09-26T15:05:35.576Z,19.48
2022-09-26T15:08:02.423Z,11.00
2022-09-26T15:10:41.153Z,13.00
2022-09-26T15:13:09.697Z,11.38
2022-09-26T15:15:58.019Z,13.95
2022-09-26T15:18:27.298Z,14.88
2022-09-26T15:21:03.287Z,11.77
2022-09-26T15:23:32.922Z,15.00
2022-09-26T15:26:02.500Z,18.02
2022-09-26T15:28:34.405Z,12.80
2022-09-26T15:31:35.846Z,12.80
2022-09-26T15:34:16.234Z,11.32
2022-09-26T15:36:44.438Z,13.27
2022-09-26T15:39:32.631Z,9.18
2022-09-26T15:42:20.712Z,9.55
2022-09-26T15:44:49.448Z,8.95
2022-09-26T15:47:26.116Z,11.10
2022-09-26T15:50:14.958Z,13.05
2022-09-26T15:52:52.815Z,12.13
2022-09-26T15:55:23.667Z,10.57
2022-09-26T15:57:52.028Z,7.07
2022-09-26T16:00:18.862Z,5.15
2022-09-26T16:02:46.182Z,5.82
2022-09-26T16:05:13.730Z,12.10
2022-09-26T16:07:41.568Z,10.43
2022-09-26T16:10:37.633Z,12.40
2022-09-26T16:13:04.151Z,7.43
2022-09-26T16:15:31.196Z,4.38
2022-09-26T16:17:58.622Z,7.78
2022-09-26T16:20:28.636Z,7.55
2022-09-26T16:23:01.772Z,7.32
2022-09-26T16:25:32.159Z,7.63
2022-09-26T16:28:10.052Z,5.35
2022-09-26T16:30:43.175Z,7.32
2022-09-26T16:33:09.989Z,6.07
2022-09-26T16:35:38.859Z,4.32
2022-09-26T16:38:24.561Z,6.28
2022-09-26T16:40:53.281Z,5.72
2022-09-26T16:43:31.551Z,9.85
2022-09-26T16:46:09.260Z,10.05
2022-09-26T16:48:53.275Z,9.77
2022-09-26T16:51:25.374Z,6.10
2022-09-26T16:53:54.455Z,9.57
2022-09-26T16:56:23.298Z,11.32
2022-09-26T16:58:51.041Z,10.55
2022-09-26T17:01:37.076Z,15.15
2022-09-26T17:04:04.768Z,5.55
2022-09-26T17:06:31.312Z,9.25
2022-09-26T17:09:02.534Z,7.57
2022-09-26T17:11:29.940Z,11.50
2022-09-26T17:13:56.462Z,9.27
2022-09-26T17:16:23.085Z,13.68
2022-09-26T17:18:49.660Z,12.13
2022-09-26T17:21:16.205Z,10.30
2022-09-26T17:23:42.951Z,7.43
2022-09-26T17:26:18.160Z,10.38
2022-09-26T17:28:47.460Z,12.77
2022-09-26T17:31:20.088Z,11.38
2022-09-26T17:33:49.257Z,10.85
2022-09-26T17:36:24.131Z,13.00
2022-09-26T17:38:51.160Z,8.25
2022-09-26T17:41:17.751Z,9.98
2022-09-26T17:43:45.052Z,4.63
2022-09-26T17:46:15.607Z,7.50
2022-09-26T17:48:43.585Z,8.55
2022-09-26T17:51:13.769Z,13.80
2022-09-26T17:53:49.766Z,7.78
2022-09-26T17:56:17.537Z,9.30
2022-09-26T17:58:44.525Z,6.32
2022-09-26T18:01:19.179Z,9.50
2022-09-26T18:03:45.891Z,9.90
2022-09-26T18:06:12.519Z,8.73
2022-09-26T18:08:39.574Z,11.20
2022-09-26T18:11:10.292Z,7.90
2022-09-26T18:13:39.119Z,7.43
2022-09-26T18:16:06.198Z,10.07
2022-09-26T18:18:33.388Z,9.13
2022-09-26T18:21:03.867Z,10.57
2022-09-26T18:23:40.649Z,6.30
2022-09-26T18:26:09.123Z,9.75
2022-09-26T18:28:36.595Z,7.57
2022-09-26T18:31:03.279Z,8.55
2022-09-26T18:33:35.777Z,12.82
2022-09-26T18:36:05.106Z,6.57
2022-09-26T18:38:31.819Z,12.43
2022-09-26T18:40:59.007Z,8.95
2022-09-26T18:43:31.285Z,15.82
2022-09-26T18:45:59.071Z,7.75
2022-09-26T18:48:29.313Z,7.55
2022-09-26T18:50:57.511Z,8.55
2022-09-26T18:53:26.876Z,9.48
2022-09-26T18:56:11.678Z,9.13
2022-09-26T18:58:39.126Z,8.00
2022-09-26T19:01:08.201Z,9.70
2022-09-26T19:03:37.079Z,15.45
2022-09-26T19:06:07.220Z,10.95
2022-09-26T19:08:42.847Z,10.07
2022-09-26T19:11:18.904Z,9.45
2022-09-26T19:13:47.718Z,10.63
2022-09-26T19:16:14.533Z,12.10
2022-09-26T19:18:41.776Z,12.07
2022-09-26T19:21:16.796Z,11.43
2022-09-26T19:23:44.312Z,13.88
2022-09-26T19:26:20.421Z,15.30
2022-09-26T19:28:46.907Z,16.58
2022-09-26T19:31:13.509Z,9.43
2022-09-26T19:33:44.187Z,11.73
2022-09-26T19:36:15.084Z,15.82
2022-09-26T19:38:41.908Z,13.88
2022-09-26T19:41:08.559Z,13.15
2022-09-26T19:43:35.265Z,15.65
2022-09-26T19:46:02.725Z,20.55
2022-09-26T19:48:29.814Z,20.73
2022-09-26T19:51:00.865Z,18.05
2022-09-26T19:53:27.742Z,22.58
2022-09-26T19:55:55.726Z,20.17
2022-09-26T19:58:24.347Z,17.35
2022-09-26T20:00:53.388Z,17.48
2022-09-26T20:03:25.824Z,24.23
2022-09-26T20:05:54.846Z,23.00
2022-09-26T20:08:23.939Z,17.48
2022-09-26T20:10:54.343Z,22.65
2022-09-26T20:13:21.491Z,21.60
2022-09-26T20:15:51.546Z,28.58
2022-09-26T20:18:29.057Z,19.73
2022-09-26T20:20:56.542Z,15.85
2022-09-26T20:23:25.516Z,16.75
2022-09-26T20:25:53.896Z,17.17
2022-09-26T20:28:23.441Z,25.90
2022-09-26T20:30:54.008Z,25.10
2022-09-26T20:33:22.688Z,17.70
2022-09-26T20:36:02.970Z,33.05
2022-09-26T20:38:35.836Z,21.50
2022-09-26T20:41:13.233Z,32.17
2022-09-26T20:43:41.281Z,31.55
2022-09-26T20:46:09.388Z,34.85
2022-09-26T20:48:37.339Z,37.72
2022-09-26T20:51:07.877Z,33.35
2022-09-26T20:53:34.578Z,32.78
2022-09-26T20:56:04.165Z,36.78
2022-09-26T20:58:30.942Z,40.53
2022-09-26T21:00:59.390Z,48.00
2022-09-26T21:03:28.100Z,25.90
2022-09-26T21:05:54.884Z,37.05
2022-09-26T21:08:28.961Z,33.47
2022-09-26T21:10:56.409Z,33.65
2022-09-26T21:13:23.546Z,36.25
2022-09-26T21:15:53.786Z,38.22
2022-09-26T21:18:25.269Z,32.03
2022-09-26T21:21:04.025Z,44.72
2022-09-26T21:23:51.466Z,48.15
2022-09-26T21:26:21.011Z,48.00
2022-09-26T21:28:49.536Z,39.33
2022-09-26T21:31:30.002Z,46.78
2022-09-26T21:33:59.774Z,41.38
2022-09-26T21:36:34.685Z,41.53
2022-09-26T21:39:04.462Z,45.13
2022-09-26T21:41:31.142Z,43.20
2022-09-26T21:44:04.603Z,42.75
2022-09-26T21:46:31.362Z,41.17
2022-09-26T21:48:59.304Z,52.22
2022-09-26T21:51:27.602Z,33.05
2022-09-26T21:54:05.530Z,44.00
2022-09-26T21:56:38.201Z,32.78
2022-09-26T21:59:06.256Z,43.85
2022-09-26T22:01:33.080Z,42.35
2022-09-26T22:04:01.108Z,42.05
2022-09-26T22:06:27.779Z,29.77
2022-09-26T22:08:54.612Z,36.25
2022-09-26T22:11:22.106Z,34.85
2022-09-26T22:13:49.124Z,36.42
2022-09-26T22:16:16.094Z,42.33
2022-09-26T22:18:42.757Z,37.72
2022-09-26T22:21:12.643Z,38.63
2022-09-26T22:23:39.392Z,38.85
2022-09-26T22:26:06.723Z,39.25
2022-09-26T22:28:33.650Z,33.40
2022-09-26T22:31:01.857Z,40.78
2022-09-26T22:33:29.666Z,39.95
2022-09-26T22:35:56.373Z,40.72
2022-09-26T22:38:23.182Z,36.95
2022-09-26T22:41:00.246Z,35.50
2022-09-26T22:43:27.626Z,27.77
2022-09-26T22:46:00.549Z,35.38
2022-09-26T22:48:33.720Z,40.25
2022-09-26T22:51:00.473Z,26.52
2022-09-26T22:53:27.370Z,30.25
2022-09-26T22:55:55.231Z,33.50
2022-09-26T22:58:22.999Z,37.78
2022-09-26T23:00:49.879Z,33.88
2022-09-26T23:03:17.149Z,32.30
2022-09-26T23:05:44.019Z,38.38
2022-09-26T23:08:10.728Z,29.15
2022-09-26T23:10:37.693Z,36.03
2022-09-26T23:13:04.531Z,35.70
2022-09-26T23:15:31.412Z,32.50
2022-09-26T23:17:59.226Z,26.73
2022-09-26T23:20:26.191Z,33.88
2022-09-26T23:22:56.126Z,37.35
2022-09-26T23:25:22.893Z,29.77
2022-09-26T23:27:52.397Z,25.30
2022-09-26T23:30:19.143Z,27.35
2022-09-26T23:32:46.180Z,23.00
2022-09-26T23:35:14.871Z,22.75
2022-09-26T23:37:42.217Z,27.35
2022-09-26T23:40:09.558Z,23.30
2022-09-26T23:42:36.426Z,22.13
2022-09-26T23:45:03.350Z,32.35
2022-09-26T23:47:30.022Z,28.20
2022-09-26T23:49:56.892Z,26.95
2022-09-26T23:52:23.689Z,32.08
2022-09-26T23:54:50.440Z,29.15
2022-09-26T23:57:17.138Z,21.92
2022-09-26T23:59:43.864Z,24.33
